Time;durP1;ratioP1;P1;durP2;ratioP2;P2;SDS_P1;SDS_P2;PMS_P1;PMS_P2;Temp;Humidity;BMP_temperature;BMP_pressure;BME280_temperature;BME280_humidity;BME280_pressure;Samples;Min_cycle;Max_cycle;Signal;HPM_P1;HPM_P2
2022/12/23 00:00:16;;;;;;;0.85;0.70;;;14.20;71.80;;;;;;5066787;28;20056;-23
2022/12/23 00:02:42;;;;;;;0.60;0.60;;;14.20;71.90;;;;;;5068269;28;20048;-20
2022/12/23 00:05:08;;;;;;;0.77;0.57;;;14.20;72.10;;;;;;5067858;28;20528;-20
2022/12/23 00:07:33;;;;;;;1.05;0.80;;;14.20;72.00;;;;;;5066877;28;20123;-20
2022/12/23 00:09:59;;;;;;;0.98;0.90;;;14.20;71.80;;;;;;5068989;28;20078;-21
2022/12/23 00:15:09;;;;;;;0.60;0.50;;;14.20;71.90;;;;;;5068427;28;20464;-21
2022/12/23 00:17:36;;;;;;;0.50;0.50;;;14.20;72.00;;;;;;5066874;28;20056;-20
2022/12/23 00:20:03;;;;;;;0.73;0.73;;;14.20;72.00;;;;;;5068687;28;20043;-20
2022/12/23 00:25:12;;;;;;;1.00;0.40;;;14.20;71.60;;;;;;5065661;28;20536;-20
2022/12/23 00:27:38;;;;;;;0.50;0.40;;;14.20;71.60;;;;;;5067968;28;20052;-23
2022/12/23 00:30:05;;;;;;;0.52;0.47;;;14.30;71.60;;;;;;5067045;28;20064;-20
2022/12/23 00:32:30;;;;;;;0.45;0.45;;;14.20;71.50;;;;;;5065333;28;20510;-20
2022/12/23 00:34:56;;;;;;;0.85;0.40;;;14.20;71.50;;;;;;5067879;28;20157;-21
2022/12/23 00:37:21;;;;;;;0.73;0.40;;;14.30;71.40;;;;;;5066661;28;20055;-21
2022/12/23 00:45:15;;;;;;;1.02;0.52;;;14.20;71.50;;;;;;5067312;28;20068;-20
2022/12/23 00:50:27;;;;;;;0.50;0.50;;;14.30;71.00;;;;;;5068154;28;20075;-20
2022/12/23 00:52:53;;;;;;;0.47;0.40;;;14.20;71.30;;;;;;5066818;28;20036;-20
2022/12/23 00:55:18;;;;;;;0.38;0.20;;;14.20;71.60;;;;;;5066307;28;20097;-20
2022/12/23 00:57:44;;;;;;;0.30;0.30;;;14.20;71.30;;;;;;5067664;28;20093;-19
2022/12/23 01:00:10;;;;;;;0.43;0.43;;;14.30;71.50;;;;;;5064722;28;20067;-20
2022/12/23 01:05:35;;;;;;;0.30;0.30;;;14.20;71.70;;;;;;5061828;28;20151;-24
2022/12/23 01:08:08;;;;;;;0.28;0.20;;;14.30;71.60;;;;;;5066885;28;20119;-29
2022/12/23 01:10:38;;;;;;;0.30;0.30;;;14.20;72.10;;;;;;5078072;28;20052;-21
2022/12/23 01:13:03;;;;;;;0.20;0.20;;;14.30;71.40;;;;;;5067201;28;20052;-20
2022/12/23 01:15:29;;;;;;;0.25;0.25;;;14.20;71.70;;;;;;5066722;28;20501;-20
2022/12/23 01:17:55;;;;;;;0.95;0.30;;;14.20;71.60;;;;;;5067331;28;20120;-20
2022/12/23 01:20:20;;;;;;;0.38;0.38;;;14.20;72.00;;;;;;5067207;28;20060;-19
2022/12/23 01:22:46;;;;;;;0.40;0.40;;;14.20;71.60;;;;;;5068282;28;20044;-20
2022/12/23 01:25:12;;;;;;;0.50;0.50;;;14.20;71.60;;;;;;5067295;28;20441;-24
2022/12/23 01:27:37;;;;;;;0.28;0.28;;;14.20;71.40;;;;;;5066735;28;20049;-23
2022/12/23 01:30:04;;;;;;;0.40;0.40;;;14.30;71.10;;;;;;5066234;28;20040;-26
2022/12/23 01:32:29;;;;;;;0.20;0.20;;;14.30;71.50;;;;;;5062274;28;20076;-20
2022/12/23 01:34:55;;;;;;;0.50;0.50;;;14.20;71.70;;;;;;5067964;28;20125;-22
2022/12/23 01:37:20;;;;;;;0.52;0.43;;;14.20;71.70;;;;;;5068446;28;20040;-21
2022/12/23 01:39:46;;;;;;;0.40;0.40;;;14.20;72.00;;;;;;5069832;28;20550;-21
2022/12/23 01:44:59;;;;;;;0.40;0.40;;;14.20;71.70;;;;;;5069605;28;20064;-20
2022/12/23 01:47:30;;;;;;;0.30;0.30;;;14.20;71.80;;;;;;5070221;28;20033;-20
2022/12/23 01:50:15;;;;;;;0.30;0.30;;;14.20;71.90;;;;;;5086696;28;20509;-21
2022/12/23 01:52:49;;;;;;;0.70;0.38;;;14.20;71.90;;;;;;5068236;28;20041;-20
2022/12/23 01:55:17;;;;;;;0.30;0.30;;;14.30;71.50;;;;;;5069557;28;20229;-23
2022/12/23 01:57:43;;;;;;;0.30;0.30;;;14.30;71.60;;;;;;5085876;28;20057;-21
2022/12/23 02:05:37;;;;;;;0.17;0.17;;;14.20;71.80;;;;;;5070136;28;20051;-20
2022/12/23 02:10:54;;;;;;;0.28;0.28;;;14.30;71.30;;;;;;5067422;28;20087;-20
2022/12/23 02:16:15;;;;;;;0.40;0.40;;;14.20;71.70;;;;;;5087101;28;20037;-21
2022/12/23 02:16:31;;;;;;;0.40;0.32;;;14.20;71.80;;;;;;5067715;28;20048;-19
2022/12/23 02:19:21;;;;;;;0.40;0.40;;;14.30;71.80;;;;;;5069047;28;20112;-21
2022/12/23 02:22:03;;;;;;;0.20;0.20;;;14.20;71.70;;;;;;5066485;28;20162;-20
2022/12/23 02:24:47;;;;;;;0.20;0.20;;;14.20;71.70;;;;;;5068827;28;20040;-20
2022/12/23 02:27:18;;;;;;;0.45;0.20;;;14.20;71.70;;;;;;5054537;28;20103;-19
2022/12/23 02:30:14;;;;;;;0.50;0.50;;;14.30;71.50;;;;;;5067833;28;20048;-20
2022/12/23 02:32:49;;;;;;;0.50;0.50;;;14.30;71.80;;;;;;5067534;28;20493;-20
2022/12/23 02:35:38;;;;;;;0.55;0.40;;;14.30;71.70;;;;;;5069221;28;20089;-19
2022/12/23 02:38:43;;;;;;;0.40;0.40;;;14.30;71.70;;;;;;5006149;28;20068;-21
2022/12/23 02:41:18;;;;;;;0.40;0.40;;;14.30;72.30;;;;;;5003820;28;20034;-20
2022/12/23 02:43:55;;;;;;;0.47;0.47;;;14.30;71.50;;;;;;4990711;28;20080;-20
2022/12/23 02:46:28;;;;;;;0.30;0.30;;;14.30;71.60;;;;;;4990127;28;20045;-19
2022/12/23 02:48:56;;;;;;;0.20;0.20;;;14.30;71.60;;;;;;5006044;28;20066;-20
2022/12/23 02:51:25;;;;;;;0.22;0.20;;;14.30;71.70;;;;;;4989324;28;20094;-20
2022/12/23 02:53:55;;;;;;;0.10;0.10;;;14.30;71.30;;;;;;4977809;28;20086;-21
2022/12/23 02:56:21;;;;;;;0.22;0.22;;;14.20;71.60;;;;;;4972795;28;20550;-20
2022/12/23 02:59:01;;;;;;;0.20;0.20;;;14.30;71.60;;;;;;4973901;28;20037;-21
2022/12/23 03:01:27;;;;;;;0.15;0.15;;;14.30;71.30;;;;;;4989107;28;20042;-20
2022/12/23 03:03:53;;;;;;;0.30;0.30;;;14.30;71.90;;;;;;4989831;28;20593;-20
2022/12/23 03:06:34;;;;;;;0.10;0.10;;;14.20;72.10;;;;;;4990354;28;20041;-21
2022/12/23 03:08:59;;;;;;;0.20;0.20;;;14.20;71.80;;;;;;4989856;28;20066;-20
2022/12/23 03:11:53;;;;;;;0.10;0.10;;;14.20;71.50;;;;;;4988450;28;20069;-22
2022/12/23 03:14:40;;;;;;;0.30;0.30;;;14.30;71.50;;;;;;4995972;28;20040;-20
2022/12/23 03:17:34;;;;;;;0.30;0.30;;;14.30;71.60;;;;;;5068187;28;20120;-20
2022/12/23 03:20:17;;;;;;;0.30;0.10;;;14.30;71.40;;;;;;5063402;28;20295;-20
2022/12/23 03:22:58;;;;;;;0.43;0.22;;;14.30;71.20;;;;;;5067685;28;20186;-24
2022/12/23 03:25:28;;;;;;;0.20;0.20;;;14.30;71.10;;;;;;5083132;28;20052;-31
2022/12/23 03:28:02;;;;;;;0.10;0.10;;;14.30;71.20;;;;;;5097515;28;20044;-20
2022/12/23 03:30:28;;;;;;;0.30;0.20;;;14.30;71.00;;;;;;5068490;28;20048;-20
2022/12/23 03:33:03;;;;;;;0.20;0.10;;;14.30;72.00;;;;;;5084694;28;20033;-20
2022/12/23 03:35:37;;;;;;;0.20;0.20;;;14.20;72.40;;;;;;5067397;28;20036;-21
2022/12/23 03:38:02;;;;;;;;;;;14.20;71.70;;;;;;5068158;28;20517;-20
2022/12/23 03:40:36;;;;;;;0.30;0.30;;;14.20;71.70;;;;;;5067298;28;19909;-18
2022/12/23 03:43:04;;;;;;;0.10;0.10;;;14.20;71.70;;;;;;5080816;28;20053;-20
2022/12/23 03:45:57;;;;;;;0.13;0.10;;;14.30;71.70;;;;;;5068098;28;20566;-21
2022/12/23 03:48:30;;;;;;;0.30;0.30;;;14.30;71.80;;;;;;5076180;28;20394;-20
2022/12/23 03:50:58;;;;;;;0.20;0.20;;;14.30;71.20;;;;;;5065988;28;20044;-21
2022/12/23 03:53:31;;;;;;;0.30;0.30;;;14.30;71.90;;;;;;5082931;28;20040;-18
2022/12/23 03:56:06;;;;;;;0.20;0.20;;;14.20;71.90;;;;;;5066370;28;20102;-26
2022/12/23 03:58:45;;;;;;;0.20;0.20;;;14.20;71.90;;;;;;5064216;28;20044;-20
2022/12/23 04:01:28;;;;;;;0.20;0.20;;;14.30;71.90;;;;;;5065622;28;20501;-20
2022/12/23 04:04:21;;;;;;;0.17;0.17;;;14.20;72.00;;;;;;5066543;28;20055;-24
2022/12/23 04:07:02;;;;;;;0.20;0.20;;;14.20;72.40;;;;;;5079217;28;20072;-21
2022/12/23 04:09:28;;;;;;;0.25;0.20;;;14.30;71.70;;;;;;5063955;28;20437;-22
2022/12/23 04:11:54;;;;;;;0.25;0.20;;;14.30;72.10;;;;;;5067387;28;20052;-26
2022/12/23 04:14:21;;;;;;;0.22;0.22;;;14.30;71.30;;;;;;5083854;28;20106;-21
2022/12/23 04:16:46;;;;;;;0.10;0.10;;;14.30;71.70;;;;;;5081473;28;20055;-20
2022/12/23 04:19:12;;;;;;;0.22;0.22;;;14.30;71.70;;;;;;5084254;28;20041;-20
2022/12/23 04:21:38;;;;;;;0.20;0.20;;;14.30;71.70;;;;;;5071667;28;20154;-20
2022/12/23 04:24:03;;;;;;;0.20;0.20;;;14.30;71.30;;;;;;5066627;28;20048;-20
2022/12/23 04:26:29;;;;;;;0.20;0.20;;;14.30;71.90;;;;;;5067125;28;20140;-20
2022/12/23 04:28:54;;;;;;;0.10;0.10;;;14.20;71.80;;;;;;5067353;28;20052;-20
2022/12/23 04:31:20;;;;;;;0.20;0.20;;;14.20;72.60;;;;;;5067928;28;20040;-21
2022/12/23 04:33:46;;;;;;;0.10;0.10;;;14.20;71.80;;;;;;5067357;28;20052;-21
2022/12/23 04:36:11;;;;;;;0.20;0.20;;;14.30;71.80;;;;;;5067816;28;20481;-20
2022/12/23 04:38:37;;;;;;;0.20;0.20;;;14.30;71.70;;;;;;5066907;28;20036;-21
2022/12/23 04:41:03;;;;;;;0.20;0.20;;;14.30;72.00;;;;;;5066976;28;20044;-20
2022/12/23 04:43:28;;;;;;;0.10;0.10;;;14.30;72.10;;;;;;5066998;28;20079;-22
2022/12/23 04:45:54;;;;;;;0.20;0.20;;;14.30;72.10;;;;;;5067540;28;20041;-20
2022/12/23 04:48:19;;;;;;;0.20;0.20;;;14.30;71.70;;;;;;5066205;28;20421;-20
2022/12/23 04:50:45;;;;;;;0.10;0.10;;;14.20;72.20;;;;;;5067136;28;20055;-20
2022/12/23 04:53:11;;;;;;;0.10;0.10;;;14.30;72.50;;;;;;5067418;28;20044;-20
2022/12/23 04:55:36;;;;;;;0.20;0.20;;;14.20;71.70;;;;;;5066990;28;20101;-20
2022/12/23 04:58:02;;;;;;;0.20;0.20;;;14.20;72.30;;;;;;5066616;28;20072;-20
2022/12/23 05:00:27;;;;;;;0.28;0.28;;;14.20;72.30;;;;;;5066237;28;20048;-26
2022/12/23 05:02:53;;;;;;;0.30;0.30;;;14.30;71.60;;;;;;5067655;28;20085;-20
2022/12/23 05:05:18;;;;;;;0.35;0.35;;;14.30;72.00;;;;;;5066956;28;20063;-20
2022/12/23 05:07:44;;;;;;;0.17;0.10;;;14.30;71.70;;;;;;5066049;28;20574;-22
2022/12/23 05:10:10;;;;;;;0.40;0.40;;;14.30;72.10;;;;;;5067021;28;20521;-20
2022/12/23 05:12:35;;;;;;;0.30;0.20;;;14.30;72.30;;;;;;5067982;28;20059;-21
2022/12/23 05:15:01;;;;;;;0.30;0.30;;;14.30;72.40;;;;;;5071044;28;20044;-20
2022/12/23 05:17:26;;;;;;;0.10;0.10;;;14.30;72.20;;;;;;5071157;28;20052;-21
2022/12/23 05:19:52;;;;;;;0.13;0.10;;;14.20;72.50;;;;;;5070264;28;20048;-20
2022/12/23 05:22:17;;;;;;;0.20;0.20;;;14.20;71.70;;;;;;5071901;28;20399;-21
2022/12/23 05:24:43;;;;;;;0.20;0.20;;;14.20;72.70;;;;;;5069673;28;20068;-20
2022/12/23 05:27:09;;;;;;;0.30;0.20;;;14.30;71.60;;;;;;5071972;28;20040;-21
2022/12/23 05:29:34;;;;;;;0.22;0.20;;;14.20;72.00;;;;;;5070282;28;20047;-19
2022/12/23 05:32:00;;;;;;;0.10;0.10;;;14.20;72.40;;;;;;5070483;28;20084;-20
2022/12/23 05:34:25;;;;;;;0.30;0.30;;;14.30;71.60;;;;;;5070777;28;20051;-22
2022/12/23 05:36:51;;;;;;;0.28;0.22;;;14.30;71.50;;;;;;5069601;28;20048;-21
2022/12/23 05:39:16;;;;;;;0.10;0.10;;;14.30;72.20;;;;;;5071185;28;20063;-20
2022/12/23 05:41:42;;;;;;;0.17;0.17;;;14.20;72.70;;;;;;5069382;28;20064;-20
2022/12/23 05:44:07;;;;;;;0.20;0.20;;;14.20;72.20;;;;;;5070865;28;20714;-20
2022/12/23 05:46:33;;;;;;;0.20;0.20;;;14.20;72.50;;;;;;5070208;28;20068;-20
2022/12/23 05:48:59;;;;;;;0.20;0.20;;;14.20;71.60;;;;;;5070382;28;20036;-25
2022/12/23 05:51:24;;;;;;;0.10;0.10;;;14.20;71.70;;;;;;5070167;28;20082;-22
2022/12/23 05:53:50;;;;;;;0.20;0.20;;;14.30;71.70;;;;;;5070807;28;20048;-20
2022/12/23 05:56:15;;;;;;;0.80;0.20;;;14.20;72.80;;;;;;5070684;28;20033;-20
2022/12/23 05:58:41;;;;;;;0.20;0.20;;;14.30;72.30;;;;;;5069018;28;20043;-23
2022/12/23 06:01:06;;;;;;;0.30;0.30;;;14.20;72.20;;;;;;5070819;28;20040;-20
2022/12/23 06:03:32;;;;;;;0.10;0.10;;;14.20;72.60;;;;;;5084971;28;20040;-19
2022/12/23 06:05:58;;;;;;;0.20;0.20;;;14.20;73.10;;;;;;5070426;28;20044;-21
2022/12/23 06:08:24;;;;;;;0.28;0.28;;;14.20;72.30;;;;;;5070568;28;20459;-20
2022/12/23 06:10:49;;;;;;;0.30;0.30;;;14.20;72.90;;;;;;5070218;28;20033;-21
2022/12/23 06:13:15;;;;;;;0.10;0.10;;;14.30;72.10;;;;;;5069116;28;20043;-20
2022/12/23 06:15:40;;;;;;;0.10;0.10;;;14.30;72.00;;;;;;5069800;28;20122;-20
2022/12/23 06:18:06;;;;;;;0.10;0.10;;;14.30;72.40;;;;;;5070152;28;20573;-20
2022/12/23 06:20:31;;;;;;;0.45;0.20;;;14.30;71.60;;;;;;5070248;28;20040;-20
2022/12/23 06:22:57;;;;;;;0.20;0.20;;;14.30;72.80;;;;;;5068980;28;20040;-25
2022/12/23 06:25:22;;;;;;;0.55;0.08;;;14.20;72.70;;;;;;5069417;28;20402;-27
2022/12/23 06:27:48;;;;;;;0.30;0.30;;;14.20;72.90;;;;;;5069233;28;20055;-20
2022/12/23 06:30:14;;;;;;;0.15;0.15;;;14.20;72.80;;;;;;5070069;28;20115;-19
2022/12/23 06:32:39;;;;;;;1.48;0.20;;;14.20;72.80;;;;;;5068880;28;20052;-22
2022/12/23 06:35:08;;;;;;;0.30;0.30;;;14.20;72.20;;;;;;5069681;28;20123;-25
2022/12/23 06:37:34;;;;;;;0.30;0.30;;;14.20;72.10;;;;;;5067991;28;20040;-20
2022/12/23 06:40:00;;;;;;;0.10;0.10;;;14.20;72.90;;;;;;5070774;28;20443;-21
2022/12/23 06:42:25;;;;;;;0.22;0.20;;;14.30;72.20;;;;;;5069258;28;20037;-20
2022/12/23 06:44:51;;;;;;;0.30;0.30;;;14.20;73.00;;;;;;5069537;28;20055;-20
2022/12/23 06:47:16;;;;;;;0.32;0.32;;;14.20;72.70;;;;;;5069292;28;20125;-20
2022/12/23 06:49:42;;;;;;;0.20;0.20;;;14.20;72.50;;;;;;5069029;28;20123;-21
2022/12/23 06:52:08;;;;;;;0.20;0.20;;;14.20;72.90;;;;;;5069120;28;20040;-20
2022/12/23 06:54:34;;;;;;;0.25;0.25;;;14.20;72.80;;;;;;5069344;28;20127;-16
2022/12/23 06:56:59;;;;;;;0.20;0.20;;;14.20;72.20;;;;;;5066798;28;20136;-22
2022/12/23 06:59:25;;;;;;;0.10;0.10;;;14.30;71.30;;;;;;5068839;28;20539;-20
2022/12/23 07:01:50;;;;;;;0.10;0.10;;;14.30;73.20;;;;;;5069024;28;20041;-35
2022/12/23 07:04:16;;;;;;;0.20;0.20;;;14.30;72.70;;;;;;5069073;28;20055;-21
2022/12/23 07:06:42;;;;;;;0.20;0.20;;;14.20;72.80;;;;;;5068733;28;20045;-20
2022/12/23 07:09:07;;;;;;;0.30;0.30;;;14.30;72.70;;;;;;5068628;28;20052;-20
2022/12/23 07:11:33;;;;;;;0.10;0.10;;;14.30;72.50;;;;;;5069917;28;20516;-20
2022/12/23 07:13:59;;;;;;;0.50;0.50;;;14.20;73.20;;;;;;5067970;28;20045;-23
2022/12/23 07:16:24;;;;;;;0.28;0.20;;;14.20;73.20;;;;;;5069452;28;20498;-20
2022/12/23 07:18:50;;;;;;;0.17;0.17;;;14.20;72.70;;;;;;5068435;28;20045;-20
2022/12/23 07:21:16;;;;;;;0.20;0.20;;;14.20;72.60;;;;;;5068393;28;20037;-22
2022/12/23 07:23:41;;;;;;;0.28;0.28;;;14.30;72.90;;;;;;5068055;28;20041;-19
2022/12/23 07:26:07;;;;;;;0.20;0.20;;;14.20;73.00;;;;;;5069145;28;20435;-20
2022/12/23 07:28:32;;;;;;;0.30;0.30;;;14.20;73.30;;;;;;5067336;28;20052;-20
2022/12/23 07:30:58;;;;;;;0.20;0.20;;;14.30;73.10;;;;;;5068859;28;20036;-24
2022/12/23 07:33:23;;;;;;;0.70;0.20;;;14.20;73.00;;;;;;5068040;28;20127;-20
2022/12/23 07:35:49;;;;;;;0.20;0.20;;;14.20;73.30;;;;;;5068202;28;20080;-20
2022/12/23 07:38:14;;;;;;;0.38;0.38;;;14.20;72.80;;;;;;5068939;28;20036;-20
2022/12/23 07:40:40;;;;;;;0.30;0.30;;;14.20;72.80;;;;;;5083649;28;20032;-20
2022/12/23 07:43:06;;;;;;;0.20;0.20;;;14.20;73.20;;;;;;5069415;28;20052;-26
2022/12/23 07:45:31;;;;;;;0.30;0.30;;;14.20;73.30;;;;;;5068529;28;20041;-20
2022/12/23 07:48:00;;;;;;;0.20;0.20;;;14.20;72.60;;;;;;5067736;28;20055;-25
2022/12/23 07:50:25;;;;;;;0.28;0.20;;;14.20;73.40;;;;;;5068133;28;20049;-21
2022/12/23 07:52:52;;;;;;;0.15;0.15;;;14.20;73.30;;;;;;5068018;28;20132;-20
2022/12/23 07:55:18;;;;;;;0.28;0.28;;;14.20;73.50;;;;;;5068740;28;20048;-20
2022/12/23 07:57:47;;;;;;;0.13;0.10;;;14.20;72.80;;;;;;5067610;28;20059;-19
2022/12/23 08:00:13;;;;;;;0.10;0.10;;;14.20;73.50;;;;;;5068384;28;20094;-20
2022/12/23 08:02:38;;;;;;;0.20;0.20;;;14.20;72.90;;;;;;5067671;28;20462;-21
2022/12/23 08:05:05;;;;;;;0.08;0.05;;;14.20;73.50;;;;;;5068405;28;20048;-21
2022/12/23 08:07:30;;;;;;;0.10;0.10;;;14.20;73.00;;;;;;5068484;28;20049;-21
2022/12/23 08:09:56;;;;;;;0.10;0.10;;;14.20;73.20;;;;;;5066634;28;20044;-20
2022/12/23 08:12:21;;;;;;;0.20;0.20;;;14.30;72.90;;;;;;5068116;28;20040;-24
2022/12/23 08:14:47;;;;;;;0.10;0.10;;;14.30;72.50;;;;;;5067370;28;20137;-20
2022/12/23 08:17:13;;;;;;;0.10;0.10;;;14.30;72.60;;;;;;5083818;28;20052;-23
2022/12/23 08:19:39;;;;;;;0.10;0.10;;;14.30;73.30;;;;;;5067490;28;20036;-18
2022/12/23 08:22:04;;;;;;;0.10;0.10;;;14.30;73.70;;;;;;5067518;28;20432;-20
2022/12/23 08:24:30;;;;;;;0.10;0.10;;;14.30;72.90;;;;;;5067143;28;20068;-20
2022/12/23 08:26:57;;;;;;;0.10;0.10;;;14.30;73.00;;;;;;5067387;28;20056;-23
2022/12/23 08:29:22;;;;;;;0.20;0.10;;;14.30;72.90;;;;;;5067474;28;20040;-21
2022/12/23 08:31:49;;;;;;;0.10;0.10;;;14.30;73.20;;;;;;5066121;28;20107;-29
2022/12/23 08:34:14;;;;;;;0.13;0.00;;;14.30;72.60;;;;;;5067599;28;20069;-28
2022/12/23 08:36:40;;;;;;;0.05;0.00;;;14.30;72.80;;;;;;5066479;28;20079;-18
2022/12/23 08:39:07;;;;;;;0.17;0.10;;;14.30;72.80;;;;;;5067531;28;20044;-20
2022/12/23 08:41:36;;;;;;;0.10;0.10;;;14.30;73.30;;;;;;5067838;28;20052;-23
2022/12/23 08:44:01;;;;;;;0.10;0.10;;;14.20;73.20;;;;;;5065843;28;20052;-28
2022/12/23 08:46:27;;;;;;;0.00;0.00;;;14.30;73.00;;;;;;5066181;28;20058;-20
2022/12/23 08:48:53;;;;;;;0.15;0.15;;;14.20;72.80;;;;;;5066548;28;20405;-21
2022/12/23 08:51:19;;;;;;;0.17;0.10;;;14.20;73.50;;;;;;5066706;28;20096;-21
2022/12/23 08:53:45;;;;;;;0.20;0.10;;;14.20;73.60;;;;;;5067213;28;20131;-20
2022/12/23 08:56:13;;;;;;;0.10;0.10;;;14.20;73.60;;;;;;5067879;28;20115;-21
2022/12/23 08:58:39;;;;;;;0.10;0.10;;;14.30;73.20;;;;;;5067077;28;20041;-21
2022/12/23 09:01:06;;;;;;;0.00;0.00;;;14.30;73.30;;;;;;5066867;28;20722;-20
2022/12/23 09:03:32;;;;;;;0.10;0.10;;;14.30;72.80;;;;;;5066839;28;20033;-21
2022/12/23 09:05:57;;;;;;;0.10;0.10;;;14.20;72.90;;;;;;5067085;28;20055;-24
2022/12/23 09:08:23;;;;;;;0.25;0.25;;;14.30;73.20;;;;;;5066984;28;20240;-20
2022/12/23 09:10:48;;;;;;;0.20;0.20;;;14.30;72.80;;;;;;5066821;28;20044;-29
2022/12/23 09:13:14;;;;;;;0.28;0.28;;;14.30;72.60;;;;;;5066942;28;20157;-21
2022/12/23 09:15:41;;;;;;;0.17;0.10;;;14.30;72.70;;;;;;5067707;28;20036;-20
2022/12/23 09:18:07;;;;;;;0.15;0.10;;;14.30;72.90;;;;;;5082063;28;20037;-26
2022/12/23 09:20:32;;;;;;;0.20;0.20;;;14.30;72.50;;;;;;5067147;28;20052;-28
2022/12/23 09:22:59;;;;;;;0.47;0.10;;;14.30;72.90;;;;;;5066865;28;20074;-25
2022/12/23 09:25:25;;;;;;;0.10;0.10;;;14.30;72.90;;;;;;5067341;28;20466;-26
2022/12/23 09:27:51;;;;;;;0.15;0.15;;;14.30;72.50;;;;;;5065579;28;20048;-26
2022/12/23 09:30:16;;;;;;;0.20;0.20;;;14.30;72.80;;;;;;5067042;28;20044;-21
2022/12/23 09:32:42;;;;;;;0.10;0.10;;;14.30;72.50;;;;;;5066698;28;20033;-22
2022/12/23 09:35:08;;;;;;;0.55;0.25;;;14.30;72.90;;;;;;5082282;28;20037;-20
2022/12/23 09:37:34;;;;;;;0.20;0.20;;;14.20;73.00;;;;;;5066640;28;20051;-20
2022/12/23 09:40:00;;;;;;;0.20;0.20;;;14.20;73.50;;;;;;5066284;28;20041;-21
2022/12/23 09:42:59;;;;;;;0.30;0.20;;;14.30;73.20;;;;;;5066027;28;20052;-24
2022/12/23 09:45:52;;;;;;;0.20;0.20;;;14.20;73.30;;;;;;5066498;28;20517;-20
2022/12/23 09:48:20;;;;;;;0.20;0.20;;;14.20;74.00;;;;;;5064965;28;20041;-21
2022/12/23 09:50:46;;;;;;;0.50;0.30;;;14.30;73.90;;;;;;5064973;28;20033;-27
2022/12/23 09:53:19;;;;;;;0.28;0.20;;;14.30;73.00;;;;;;5066144;28;20036;-20
2022/12/23 09:55:50;;;;;;;0.20;0.20;;;14.30;73.40;;;;;;5065423;28;20075;-22
2022/12/23 09:58:39;;;;;;;0.20;0.20;;;14.30;73.60;;;;;;5068747;28;20037;-20
2022/12/23 10:01:23;;;;;;;0.40;0.25;;;14.30;73.60;;;;;;5068626;28;20055;-20
2022/12/23 10:03:49;;;;;;;0.20;0.10;;;14.30;73.50;;;;;;5082220;28;20531;-20
2022/12/23 10:06:23;;;;;;;0.20;0.13;;;14.30;73.10;;;;;;5070508;28;20033;-20
2022/12/23 10:08:50;;;;;;;0.20;0.10;;;14.30;73.60;;;;;;5067455;28;20037;-30
2022/12/23 10:11:27;;;;;;;0.40;0.10;;;14.30;73.60;;;;;;5068423;28;20032;-25
2022/12/23 10:14:13;;;;;;;0.20;0.20;;;14.30;73.50;;;;;;5069905;28;20543;-20
2022/12/23 10:16:41;;;;;;;0.20;0.20;;;14.30;73.20;;;;;;5069496;28;20501;-21
2022/12/23 10:19:24;;;;;;;0.20;0.20;;;14.30;73.60;;;;;;5085323;28;20072;-26
2022/12/23 10:22:02;;;;;;;0.10;0.10;;;14.30;73.30;;;;;;5069213;28;20174;-20
2022/12/23 10:24:30;;;;;;;0.15;0.10;;;14.30;73.60;;;;;;5070037;28;20075;-28
2022/12/23 10:26:58;;;;;;;0.28;0.15;;;14.30;73.20;;;;;;5069646;28;20036;-25
2022/12/23 10:29:25;;;;;;;0.10;0.10;;;14.30;73.30;;;;;;5069072;28;20044;-20
2022/12/23 10:32:04;;;;;;;0.15;0.15;;;14.30;74.10;;;;;;5069655;28;20040;-26
2022/12/23 10:34:43;;;;;;;0.20;0.20;;;14.30;73.60;;;;;;5070209;28;20052;-20
2022/12/23 10:37:21;;;;;;;0.20;0.20;;;14.30;73.60;;;;;;5069456;28;20048;-21
2022/12/23 10:40:24;;;;;;;0.20;0.20;;;14.30;73.60;;;;;;5069166;28;20555;-21
2022/12/23 10:43:10;;;;;;;0.10;0.10;;;14.40;73.30;;;;;;4996378;28;20077;-20
2022/12/23 10:46:08;;;;;;;0.10;0.10;;;14.40;73.30;;;;;;4957705;28;20527;-20
2022/12/23 10:48:47;;;;;;;0.20;0.20;;;14.40;73.40;;;;;;4987670;28;20515;-20
2022/12/23 10:51:31;;;;;;;0.43;0.15;;;14.40;73.70;;;;;;5003788;28;20081;-20
2022/12/23 10:54:03;;;;;;;0.40;0.30;;;14.40;73.20;;;;;;4987624;28;20034;-21
2022/12/23 10:56:29;;;;;;;0.20;0.20;;;14.50;72.90;;;;;;4971303;28;20129;-20
2022/12/23 10:58:56;;;;;;;0.40;0.10;;;14.50;72.20;;;;;;4971550;28;20074;-21
2022/12/23 11:01:22;;;;;;;0.30;0.30;;;14.60;72.10;;;;;;4987444;28;20132;-20
2022/12/23 11:03:55;;;;;;;0.22;0.20;;;14.60;71.80;;;;;;4971655;28;20523;-24
2022/12/23 11:06:21;;;;;;;0.20;0.20;;;14.60;71.50;;;;;;4987145;28;20065;-20
2022/12/23 11:08:47;;;;;;;0.17;0.17;;;14.60;71.60;;;;;;4987928;28;20794;-24
2022/12/23 11:11:12;;;;;;;0.40;0.40;;;14.60;72.50;;;;;;4986716;28;20250;-21
2022/12/23 11:13:39;;;;;;;0.28;0.28;;;14.50;72.10;;;;;;4987802;28;20031;-20
2022/12/23 11:16:24;;;;;;;0.20;0.20;;;14.50;71.70;;;;;;4987129;28;20034;-19
2022/12/23 11:19:04;;;;;;;0.20;0.20;;;14.50;72.10;;;;;;5037857;28;20109;-21
2022/12/23 11:21:31;;;;;;;0.20;0.10;;;14.40;72.20;;;;;;5069896;28;20043;-29
2022/12/23 11:24:16;;;;;;;0.30;0.20;;;14.50;72.50;;;;;;5067071;28;20051;-28
2022/12/23 11:26:44;;;;;;;0.28;0.20;;;14.50;72.30;;;;;;5067327;28;20633;-21
2022/12/23 11:29:12;;;;;;;0.20;0.20;;;14.60;71.60;;;;;;5066515;28;20305;-24
2022/12/23 11:31:37;;;;;;;0.10;0.10;;;14.70;71.30;;;;;;5067760;28;20074;-20
2022/12/23 11:34:04;;;;;;;0.43;0.20;;;14.70;71.30;;;;;;5067782;28;20124;-22
2022/12/23 11:36:30;;;;;;;0.65;0.20;;;14.70;71.30;;;;;;5083920;28;20053;-20
2022/12/23 11:39:08;;;;;;;1.58;0.45;;;14.60;72.60;;;;;;5065861;28;20477;-21
2022/12/23 11:41:44;;;;;;;1.25;0.20;;;14.60;72.80;;;;;;5066528;28;21012;-22
2022/12/23 11:44:32;;;;;;;0.45;0.30;;;14.60;72.20;;;;;;5067864;28;20040;-24
2022/12/23 11:47:16;;;;;;;0.88;0.40;;;14.60;72.40;;;;;;5081694;28;20045;-22
2022/12/23 11:49:48;;;;;;;1.17;0.27;;;14.60;72.60;;;;;;5082507;28;20081;-30
2022/12/23 11:52:16;;;;;;;0.82;0.40;;;14.60;73.10;;;;;;5067240;28;20652;-29
2022/12/23 11:54:41;;;;;;;0.55;0.30;;;14.60;72.60;;;;;;5084260;28;20044;-22
2022/12/23 11:57:13;;;;;;;0.55;0.40;;;14.70;73.20;;;;;;5066086;28;20051;-21
2022/12/23 11:59:41;;;;;;;0.57;0.40;;;14.60;72.60;;;;;;5065175;28;20520;-30
2022/12/23 12:02:29;;;;;;;0.70;0.60;;;14.60;73.30;;;;;;5083605;28;20508;-20
2022/12/23 12:04:58;;;;;;;0.45;0.35;;;14.60;72.80;;;;;;5082611;28;20041;-25
2022/12/23 12:07:24;;;;;;;0.95;0.40;;;14.60;73.20;;;;;;5065296;28;20048;-20
2022/12/23 12:09:50;;;;;;;0.80;0.40;;;14.60;73.00;;;;;;5067215;28;20044;-20
2022/12/23 12:12:19;;;;;;;0.28;0.25;;;14.60;73.50;;;;;;5067987;28;20075;-20
2022/12/23 12:14:50;;;;;;;1.17;0.35;;;14.60;72.90;;;;;;5066710;28;20120;-24
2022/12/23 12:17:38;;;;;;;0.17;0.10;;;14.60;72.90;;;;;;5066080;28;20044;-21
2022/12/23 12:20:05;;;;;;;0.35;0.20;;;14.60;72.50;;;;;;5064961;28;20035;-21
2022/12/23 12:23:09;;;;;;;0.57;0.20;;;14.60;73.30;;;;;;5065386;28;20052;-24
2022/12/23 12:25:39;;;;;;;0.52;0.38;;;14.50;72.50;;;;;;5065138;28;20048;-22
2022/12/23 12:28:09;;;;;;;0.60;0.30;;;14.50;73.60;;;;;;5081951;28;20556;-26
2022/12/23 12:30:38;;;;;;;0.93;0.60;;;14.50;73.00;;;;;;5066520;28;20098;-21
2022/12/23 12:33:10;;;;;;;0.80;0.40;;;14.60;72.80;;;;;;5083407;28;20082;-21
2022/12/23 12:35:53;;;;;;;0.40;0.40;;;14.60;73.50;;;;;;5066381;28;20131;-28
2022/12/23 12:38:29;;;;;;;0.68;0.65;;;14.50;73.30;;;;;;5082272;28;20131;-23
2022/12/23 12:40:58;;;;;;;0.95;0.47;;;14.60;71.90;;;;;;5066645;28;20520;-19
2022/12/23 12:43:34;;;;;;;0.73;0.40;;;14.60;73.30;;;;;;5082156;28;20149;-24
2022/12/23 12:46:05;;;;;;;0.63;0.50;;;14.60;72.80;;;;;;5067349;28;20043;-20
2022/12/23 12:48:36;;;;;;;1.23;0.70;;;14.60;73.00;;;;;;5068403;28;20123;-28
2022/12/23 12:51:17;;;;;;;1.13;0.50;;;14.60;73.80;;;;;;5082390;28;20109;-21
2022/12/23 12:53:51;;;;;;;0.88;0.30;;;14.50;73.00;;;;;;5066666;28;20528;-25
2022/12/23 12:56:39;;;;;;;0.70;0.40;;;14.60;72.80;;;;;;5082949;28;20334;-21
2022/12/23 12:59:05;;;;;;;0.82;0.30;;;14.60;72.60;;;;;;5063770;28;20024;-21
2022/12/23 13:01:34;;;;;;;0.88;0.70;;;14.60;73.00;;;;;;5066991;28;20087;-22
2022/12/23 13:04:14;;;;;;;1.00;0.70;;;14.60;72.60;;;;;;5067115;28;20045;-21
2022/12/23 13:06:49;;;;;;;1.83;0.40;;;14.60;72.20;;;;;;5064826;28;20040;-24
2022/12/23 13:09:31;;;;;;;0.90;0.50;;;14.60;72.60;;;;;;5082502;28;20043;-22
2022/12/23 13:12:52;;;;;;;1.05;0.40;;;14.60;73.50;;;;;;5082103;28;20051;-26
2022/12/23 13:15:27;;;;;;;2.05;0.60;;;14.60;73.50;;;;;;4994176;28;20526;-21
2022/12/23 13:18:04;;;;;;;0.88;0.40;;;14.60;72.60;;;;;;5004598;28;20042;-20
2022/12/23 13:20:43;;;;;;;1.70;0.70;;;14.60;72.40;;;;;;5002271;28;20495;-21
2022/12/23 13:23:14;;;;;;;0.95;0.60;;;14.60;73.20;;;;;;4987295;28;20065;-19
2022/12/23 13:25:44;;;;;;;1.52;0.47;;;14.60;72.10;;;;;;5002416;28;20053;-25
2022/12/23 13:28:43;;;;;;;1.65;0.68;;;14.60;72.90;;;;;;5021420;28;20121;-20
2022/12/23 13:31:24;;;;;;;0.90;0.40;;;14.60;72.60;;;;;;4986060;28;20065;-20